Time;durP1;ratioP1;P1;durP2;ratioP2;P2;SDS_P1;SDS_P2;PMS_P1;PMS_P2;Temp;Humidity;BMP_temperature;BMP_pressure;BME280_temperature;BME280_humidity;BME280_pressure;Samples;Min_cycle;Max_cycle;Signal;HPM_P1;HPM_P2
2023/03/29 00:00:14;;;;;;;19.95;11.45;;;;;;;;;;5116533;28;20040;-78
2023/03/29 00:02:41;;;;;;;29.58;11.95;;;;;;;;;;5112500;28;20046;-78
2023/03/29 00:05:08;;;;;;;26.55;12.77;;;;;;;;;;5094822;28;20429;-78
2023/03/29 00:07:33;;;;;;;26.38;12.63;;;;;;;;;;5112880;28;20483;-78
2023/03/29 00:10:00;;;;;;;26.13;13.88;;;;;;;;;;5107304;28;20044;-78
2023/03/29 00:12:26;;;;;;;23.52;12.93;;;;;;;;;;5109816;28;20448;-78
2023/03/29 00:14:51;;;;;;;24.48;13.95;;;;;;;;;;5114986;28;20118;-78
2023/03/29 00:17:17;;;;;;;22.83;11.70;;;;;;;;;;5106858;28;20106;-78
2023/03/29 00:19:44;;;;;;;19.48;10.82;;;;;;;;;;5116340;28;20027;-77
2023/03/29 00:22:09;;;;;;;23.83;11.77;;;;;;;;;;5104308;28;20047;-77
2023/03/29 00:24:35;;;;;;;18.27;10.98;;;;;;;;;;5105474;28;20035;-77
2023/03/29 00:27:00;;;;;;;20.27;11.45;;;;;;;;;;5115752;28;20115;-78
2023/03/29 00:29:26;;;;;;;28.38;12.55;;;;;;;;;;5115899;28;20059;-78
2023/03/29 00:31:53;;;;;;;27.73;12.65;;;;;;;;;;5114495;28;20399;-78
2023/03/29 00:34:19;;;;;;;31.95;11.52;;;;;;;;;;5115925;28;20027;-77
2023/03/29 00:36:49;;;;;;;25.25;11.82;;;;;;;;;;5114801;28;20140;-78
2023/03/29 00:39:18;;;;;;;24.88;11.93;;;;;;;;;;5106632;28;20036;-78
2023/03/29 00:41:48;;;;;;;28.95;14.05;;;;;;;;;;5110479;28;20533;-77
2023/03/29 00:44:51;;;;;;;29.75;14.00;;;;;;;;;;5114275;28;20057;-78
2023/03/29 00:47:20;;;;;;;25.52;13.18;;;;;;;;;;5106624;28;20039;-78
2023/03/29 00:49:46;;;;;;;31.90;15.05;;;;;;;;;;5114052;28;20544;-78
2023/03/29 00:52:13;;;;;;;29.90;15.15;;;;;;;;;;5113826;28;20036;-78
2023/03/29 00:54:39;;;;;;;31.45;15.75;;;;;;;;;;5106388;28;20127;-77
2023/03/29 00:57:08;;;;;;;33.63;14.55;;;;;;;;;;5107943;28;20061;-77
2023/03/29 00:59:34;;;;;;;36.05;15.40;;;;;;;;;;5102533;28;20023;-78
2023/03/29 01:02:05;;;;;;;31.38;15.05;;;;;;;;;;5111830;28;20031;-78
2023/03/29 01:04:40;;;;;;;34.08;14.85;;;;;;;;;;5110326;28;20036;-77
2023/03/29 01:07:12;;;;;;;39.85;15.57;;;;;;;;;;5101967;28;20478;-77
2023/03/29 01:09:41;;;;;;;35.85;15.50;;;;;;;;;;5105740;28;20391;-78
2023/03/29 01:12:21;;;;;;;36.40;17.15;;;;;;;;;;5114354;28;20485;-78
2023/03/29 01:14:57;;;;;;;38.80;14.77;;;;;;;;;;5102063;28;20059;-78
2023/03/29 01:17:24;;;;;;;35.58;15.10;;;;;;;;;;5110581;28;20483;-78
2023/03/29 01:20:01;;;;;;;31.42;14.85;;;;;;;;;;5114592;28;20115;-77
2023/03/29 01:22:50;;;;;;;30.25;15.13;;;;;;;;;;5113444;28;20034;-78
2023/03/29 01:25:25;;;;;;;30.77;13.35;;;;;;;;;;5113371;28;20398;-77
2023/03/29 01:27:56;;;;;;;29.55;14.27;;;;;;;;;;5102595;28;20031;-78
2023/03/29 01:31:11;;;;;;;26.27;12.48;;;;;;;;;;5114532;28;20036;-79
2023/03/29 01:33:41;;;;;;;;;;;;;;;;;;5095106;28;20047;-78
2023/03/29 01:36:33;;;;;;;23.95;11.27;;;;;;;;;;5111149;28;19954;-78
2023/03/29 01:39:03;;;;;;;25.45;10.80;;;;;;;;;;5110786;28;20040;-78
2023/03/29 01:41:51;;;;;;;29.45;10.98;;;;;;;;;;5114423;28;20065;-78
2023/03/29 01:44:20;;;;;;;31.80;12.68;;;;;;;;;;5114298;28;20043;-78
2023/03/29 01:46:47;;;;;;;29.25;10.77;;;;;;;;;;5110393;28;20047;-78
2023/03/29 01:49:21;;;;;;;37.65;10.43;;;;;;;;;;5101066;28;20077;-78
2023/03/29 01:51:55;;;;;;;25.48;10.15;;;;;;;;;;5106262;28;20071;-78
2023/03/29 01:54:45;;;;;;;29.83;9.68;;;;;;;;;;5102573;28;20479;-78
2023/03/29 01:57:13;;;;;;;28.80;10.95;;;;;;;;;;5107518;28;20043;-78
2023/03/29 01:59:41;;;;;;;21.70;9.90;;;;;;;;;;5108529;28;20028;-78
2023/03/29 02:02:10;;;;;;;18.95;8.38;;;;;;;;;;5109838;28;20106;-78
2023/03/29 02:04:43;;;;;;;27.05;9.05;;;;;;;;;;5112018;28;20386;-78
2023/03/29 02:07:09;;;;;;;26.75;8.38;;;;;;;;;;5112020;28;20065;-77
2023/03/29 02:09:36;;;;;;;22.38;9.18;;;;;;;;;;5111491;28;20040;-78
2023/03/29 02:12:02;;;;;;;24.63;9.05;;;;;;;;;;5111823;28;20484;-78
2023/03/29 02:14:29;;;;;;;21.20;8.82;;;;;;;;;;5113803;28;20073;-78
2023/03/29 02:16:55;;;;;;;26.73;9.52;;;;;;;;;;5113279;28;20040;-78
2023/03/29 02:19:22;;;;;;;27.38;10.05;;;;;;;;;;5095928;28;20395;-77
2023/03/29 02:22:09;;;;;;;24.98;9.38;;;;;;;;;;5104718;28;20035;-77
2023/03/29 02:24:36;;;;;;;29.23;9.70;;;;;;;;;;5111093;28;20027;-78
2023/03/29 02:27:02;;;;;;;29.95;9.43;;;;;;;;;;5108681;28;20122;-77
2023/03/29 02:29:27;;;;;;;23.75;10.10;;;;;;;;;;5102068;28;20046;-79
2023/03/29 02:32:07;;;;;;;29.85;10.25;;;;;;;;;;5113328;28;20039;-78
2023/03/29 02:34:56;;;;;;;31.40;10.77;;;;;;;;;;5112510;28;20115;-78
2023/03/29 02:37:25;;;;;;;34.28;10.55;;;;;;;;;;5106539;28;20613;-78
2023/03/29 02:39:51;;;;;;;26.67;9.77;;;;;;;;;;5111765;28;20437;-77
2023/03/29 02:42:19;;;;;;;25.90;10.30;;;;;;;;;;5112273;28;20023;-77
2023/03/29 02:44:46;;;;;;;22.35;9.95;;;;;;;;;;5113387;28;20449;-78
2023/03/29 02:47:36;;;;;;;33.03;11.32;;;;;;;;;;5106499;28;20036;-77
2023/03/29 02:50:01;;;;;;;29.45;10.23;;;;;;;;;;5109460;28;20575;-77
2023/03/29 02:52:34;;;;;;;40.10;9.98;;;;;;;;;;5107609;28;20035;-78
2023/03/29 02:55:01;;;;;;;30.02;10.57;;;;;;;;;;5112297;28;20127;-78
2023/03/29 02:57:28;;;;;;;25.70;9.63;;;;;;;;;;5109933;28;20031;-78
2023/03/29 02:59:57;;;;;;;32.05;10.68;;;;;;;;;;5112263;28;20074;-78
2023/03/29 03:02:26;;;;;;;38.47;9.65;;;;;;;;;;5107193;28;20085;-78
2023/03/29 03:04:52;;;;;;;30.73;10.38;;;;;;;;;;5112235;28;20466;-78
2023/03/29 03:07:18;;;;;;;27.45;10.27;;;;;;;;;;5104797;28;20071;-78
2023/03/29 03:09:45;;;;;;;30.48;9.70;;;;;;;;;;5103267;28;20133;-78
2023/03/29 03:12:10;;;;;;;34.05;10.70;;;;;;;;;;5094927;28;20036;-78
2023/03/29 03:14:36;;;;;;;30.08;10.02;;;;;;;;;;5108076;28;20042;-78
2023/03/29 03:17:01;;;;;;;36.70;9.32;;;;;;;;;;5110013;28;20039;-78
2023/03/29 03:19:27;;;;;;;31.30;9.90;;;;;;;;;;5098464;28;20058;-78
2023/03/29 03:21:52;;;;;;;34.47;9.77;;;;;;;;;;5106584;28;20035;-78
2023/03/29 03:24:17;;;;;;;32.42;9.93;;;;;;;;;;5095322;28;20456;-78
2023/03/29 03:26:45;;;;;;;36.80;9.32;;;;;;;;;;5110774;28;20043;-77
2023/03/29 03:29:11;;;;;;;32.72;9.20;;;;;;;;;;5111734;28;20490;-77
2023/03/29 03:31:40;;;;;;;31.83;8.45;;;;;;;;;;5110670;28;20034;-79
2023/03/29 03:34:07;;;;;;;30.40;9.10;;;;;;;;;;5110145;28;20119;-79
2023/03/29 03:36:33;;;;;;;24.98;8.88;;;;;;;;;;5111621;28;20051;-79
2023/03/29 03:38:59;;;;;;;29.73;9.05;;;;;;;;;;5107101;28;20035;-78
2023/03/29 03:41:25;;;;;;;32.00;8.52;;;;;;;;;;5104715;28;20178;-78
2023/03/29 03:43:50;;;;;;;28.67;8.23;;;;;;;;;;5099597;28;20101;-78
2023/03/29 03:46:16;;;;;;;42.58;9.13;;;;;;;;;;5109974;28;20032;-78
2023/03/29 03:48:42;;;;;;;34.33;8.98;;;;;;;;;;5098287;28;20063;-78
2023/03/29 03:51:09;;;;;;;25.95;7.43;;;;;;;;;;5112412;28;20042;-78
2023/03/29 03:53:34;;;;;;;24.33;6.57;;;;;;;;;;5098108;28;20044;-78
2023/03/29 03:56:01;;;;;;;26.58;8.32;;;;;;;;;;5112130;28;20050;-78
2023/03/29 03:58:27;;;;;;;30.35;7.80;;;;;;;;;;5112607;28;20475;-78
2023/03/29 04:00:53;;;;;;;32.90;9.30;;;;;;;;;;5102835;28;20032;-78
2023/03/29 04:03:19;;;;;;;30.13;8.35;;;;;;;;;;5114770;28;20095;-78
2023/03/29 04:05:45;;;;;;;27.67;8.35;;;;;;;;;;5110390;28;20036;-78
2023/03/29 04:08:12;;;;;;;21.73;7.45;;;;;;;;;;5109021;28;20422;-78
2023/03/29 04:10:38;;;;;;;22.55;8.07;;;;;;;;;;5114607;28;20471;-78
2023/03/29 04:13:04;;;;;;;23.23;7.60;;;;;;;;;;5106758;28;20071;-78
2023/03/29 04:15:31;;;;;;;32.85;7.95;;;;;;;;;;5107683;28;20120;-78
2023/03/29 04:17:57;;;;;;;23.23;7.38;;;;;;;;;;5109579;28;20122;-78
2023/03/29 04:20:23;;;;;;;21.65;7.20;;;;;;;;;;5112671;28;20119;-78
2023/03/29 04:22:49;;;;;;;24.75;6.00;;;;;;;;;;5106186;28;20448;-78
2023/03/29 04:25:15;;;;;;;19.63;5.75;;;;;;;;;;5115013;28;20047;-78
2023/03/29 04:27:40;;;;;;;16.20;5.03;;;;;;;;;;5104965;28;20399;-78
2023/03/29 04:30:06;;;;;;;17.13;4.45;;;;;;;;;;5115168;28;20126;-78
2023/03/29 04:32:32;;;;;;;14.10;4.38;;;;;;;;;;5104862;28;20039;-78
2023/03/29 04:34:57;;;;;;;10.20;3.38;;;;;;;;;;5114044;28;20089;-77
2023/03/29 04:37:23;;;;;;;12.48;3.10;;;;;;;;;;5114224;28;20447;-78
2023/03/29 04:39:49;;;;;;;11.70;3.10;;;;;;;;;;5114536;28;20047;-77
2023/03/29 04:42:15;;;;;;;13.15;3.33;;;;;;;;;;5101769;28;20075;-77
2023/03/29 04:44:42;;;;;;;17.92;3.45;;;;;;;;;;5101086;28;20086;-78
2023/03/29 04:47:10;;;;;;;12.18;3.10;;;;;;;;;;5115400;28;20031;-78
2023/03/29 04:49:36;;;;;;;10.93;2.97;;;;;;;;;;5110165;28;20478;-77
2023/03/29 04:52:01;;;;;;;12.60;3.10;;;;;;;;;;5114921;28;20023;-78
2023/03/29 04:54:27;;;;;;;14.88;3.50;;;;;;;;;;5112001;28;20507;-78
2023/03/29 04:56:52;;;;;;;6.18;2.38;;;;;;;;;;5104758;28;20122;-78
2023/03/29 04:59:18;;;;;;;8.82;3.22;;;;;;;;;;5108560;28;20031;-78
2023/03/29 05:01:43;;;;;;;14.20;3.42;;;;;;;;;;5105472;28;20492;-78
2023/03/29 05:04:09;;;;;;;7.05;2.22;;;;;;;;;;5111829;28;20047;-78
2023/03/29 05:06:35;;;;;;;10.30;3.13;;;;;;;;;;5113623;28;20035;-78
2023/03/29 05:09:01;;;;;;;12.15;3.90;;;;;;;;;;5112486;28;20039;-78
2023/03/29 05:11:27;;;;;;;14.73;4.80;;;;;;;;;;5113637;28;20044;-79
2023/03/29 05:13:54;;;;;;;14.27;4.68;;;;;;;;;;5108625;28;20502;-78
2023/03/29 05:16:19;;;;;;;19.35;5.25;;;;;;;;;;5106826;28;20049;-79
2023/03/29 05:18:45;;;;;;;12.25;3.70;;;;;;;;;;5114818;28;20471;-77
2023/03/29 05:21:10;;;;;;;6.43;2.67;;;;;;;;;;5108055;28;20085;-78
2023/03/29 05:23:36;;;;;;;11.45;3.88;;;;;;;;;;5110648;28;20383;-78
2023/03/29 05:26:02;;;;;;;11.82;3.40;;;;;;;;;;5114800;27;20400;-78
2023/03/29 05:28:28;;;;;;;11.45;3.25;;;;;;;;;;5110544;28;20042;-78
2023/03/29 05:31:00;;;;;;;10.98;3.25;;;;;;;;;;5114717;28;20040;-77
2023/03/29 05:33:26;;;;;;;8.05;2.83;;;;;;;;;;5105147;28;20070;-78
2023/03/29 05:36:18;;;;;;;7.32;2.88;;;;;;;;;;5114570;28;20063;-78
2023/03/29 05:38:45;;;;;;;10.38;2.72;;;;;;;;;;5108407;28;20499;-77
2023/03/29 05:41:11;;;;;;;8.50;2.72;;;;;;;;;;5102246;27;20036;-77
2023/03/29 05:43:36;;;;;;;10.75;2.65;;;;;;;;;;5107726;28;20096;-77
2023/03/29 05:46:02;;;;;;;10.05;2.83;;;;;;;;;;5114410;28;20051;-78
2023/03/29 05:48:27;;;;;;;8.07;2.92;;;;;;;;;;5113822;28;20031;-78
2023/03/29 05:50:54;;;;;;;6.88;2.60;;;;;;;;;;5114228;28;20042;-78
2023/03/29 05:53:21;;;;;;;12.48;3.17;;;;;;;;;;5112128;28;20479;-78
2023/03/29 05:55:47;;;;;;;7.07;2.53;;;;;;;;;;5104405;28;20044;-78
2023/03/29 05:58:14;;;;;;;13.30;2.90;;;;;;;;;;5114243;28;20062;-77
2023/03/29 06:00:40;;;;;;;8.63;2.75;;;;;;;;;;5112741;28;20036;-78
2023/03/29 06:03:09;;;;;;;9.13;2.88;;;;;;;;;;5108946;28;20039;-78
2023/03/29 06:05:35;;;;;;;6.93;2.95;;;;;;;;;;5096401;28;20039;-78
2023/03/29 06:08:01;;;;;;;7.88;3.10;;;;;;;;;;5109783;28;20368;-79
2023/03/29 06:10:27;;;;;;;12.20;3.75;;;;;;;;;;5104305;28;20390;-78
2023/03/29 06:12:53;;;;;;;12.05;3.70;;;;;;;;;;5111173;28;20039;-79
2023/03/29 06:15:20;;;;;;;9.48;3.33;;;;;;;;;;5113336;28;20118;-78
2023/03/29 06:17:45;;;;;;;10.65;3.88;;;;;;;;;;5113921;28;20039;-78
2023/03/29 06:20:12;;;;;;;8.85;3.10;;;;;;;;;;5111087;28;20036;-78
2023/03/29 06:22:38;;;;;;;8.55;2.97;;;;;;;;;;5104607;28;20046;-78
2023/03/29 06:25:05;;;;;;;9.55;3.03;;;;;;;;;;5100890;28;20044;-79
2023/03/29 06:27:31;;;;;;;11.57;3.10;;;;;;;;;;5094759;28;20043;-78
2023/03/29 06:29:58;;;;;;;8.05;2.65;;;;;;;;;;5109828;28;20348;-78
2023/03/29 06:32:24;;;;;;;7.85;2.83;;;;;;;;;;5107110;28;20055;-78
2023/03/29 06:34:50;;;;;;;13.45;3.90;;;;;;;;;;5109889;28;20096;-78
2023/03/29 06:37:16;;;;;;;11.85;3.30;;;;;;;;;;5109498;28;20406;-78
2023/03/29 06:39:41;;;;;;;11.32;3.22;;;;;;;;;;5111495;28;20428;-78
2023/03/29 06:42:06;;;;;;;10.82;4.03;;;;;;;;;;5110976;28;20039;-79
2023/03/29 06:44:32;;;;;;;11.07;3.75;;;;;;;;;;5104091;28;20089;-78
2023/03/29 06:46:58;;;;;;;9.10;3.05;;;;;;;;;;5110240;28;20613;-78
2023/03/29 06:49:25;;;;;;;6.68;3.03;;;;;;;;;;5108435;28;20475;-78
2023/03/29 06:51:51;;;;;;;10.35;3.40;;;;;;;;;;5099696;28;20069;-78
2023/03/29 06:54:17;;;;;;;11.40;3.63;;;;;;;;;;5108307;28;20054;-77
2023/03/29 06:56:44;;;;;;;10.32;3.20;;;;;;;;;;5105218;28;20032;-77
2023/03/29 06:59:10;;;;;;;8.77;2.53;;;;;;;;;;5097562;28;20094;-77
2023/03/29 07:01:36;;;;;;;15.27;3.22;;;;;;;;;;5109533;28;20031;-77
2023/03/29 07:04:06;;;;;;;14.68;3.10;;;;;;;;;;5110279;28;20088;-77
2023/03/29 07:06:32;;;;;;;12.65;3.17;;;;;;;;;;5110401;28;20044;-78
2023/03/29 07:09:00;;;;;;;15.10;3.20;;;;;;;;;;5110660;28;20023;-76
2023/03/29 07:11:25;;;;;;;16.98;3.13;;;;;;;;;;5108041;28;20394;-78
2023/03/29 07:13:51;;;;;;;9.00;3.10;;;;;;;;;;5110240;28;20032;-77
2023/03/29 07:16:18;;;;;;;16.25;3.30;;;;;;;;;;5109211;28;20040;-78
2023/03/29 07:18:43;;;;;;;8.70;3.47;;;;;;;;;;5097957;28;20034;-78
2023/03/29 07:21:11;;;;;;;8.50;2.47;;;;;;;;;;5110110;28;20136;-77
2023/03/29 07:23:37;;;;;;;13.73;3.00;;;;;;;;;;5109847;28;20023;-78
2023/03/29 07:26:04;;;;;;;7.93;3.22;;;;;;;;;;5109087;28;20027;-78
2023/03/29 07:28:30;;;;;;;10.65;3.05;;;;;;;;;;5111197;28;20034;-78
2023/03/29 07:31:06;;;;;;;8.48;2.83;;;;;;;;;;5111279;28;20031;-78
2023/03/29 07:33:33;;;;;;;10.75;3.03;;;;;;;;;;5098749;28;20051;-78
2023/03/29 07:35:59;;;;;;;11.98;2.95;;;;;;;;;;5117065;28;20114;-78
2023/03/29 07:38:25;;;;;;;8.18;2.83;;;;;;;;;;5117032;28;20031;-77
2023/03/29 07:40:52;;;;;;;6.35;2.75;;;;;;;;;;5114796;28;20042;-77
2023/03/29 07:43:17;;;;;;;11.02;3.00;;;;;;;;;;5115404;28;20478;-77
2023/03/29 07:45:43;;;;;;;7.47;2.95;;;;;;;;;;5116905;28;20031;-78
2023/03/29 07:48:09;;;;;;;8.75;3.58;;;;;;;;;;5116783;28;20111;-77
2023/03/29 07:50:34;;;;;;;11.90;3.67;;;;;;;;;;5113254;28;20064;-78
2023/03/29 07:53:00;;;;;;;5.63;2.70;;;;;;;;;;5116711;28;20023;-78
2023/03/29 07:55:25;;;;;;;8.40;3.70;;;;;;;;;;5116312;28;20069;-79
2023/03/29 07:57:51;;;;;;;9.82;3.45;;;;;;;;;;5115556;28;20080;-78
2023/03/29 08:00:18;;;;;;;5.13;2.58;;;;;;;;;;5115484;28;20038;-78
2023/03/29 08:02:48;;;;;;;9.02;2.88;;;;;;;;;;5114595;28;20039;-78
2023/03/29 08:05:14;;;;;;;10.57;3.00;;;;;;;;;;5115423;28;20031;-78
2023/03/29 08:07:42;;;;;;;6.00;2.33;;;;;;;;;;5114838;28;20364;-78
2023/03/29 08:10:09;;;;;;;6.10;2.63;;;;;;;;;;5116763;28;20044;-78
2023/03/29 08:12:35;;;;;;;8.43;3.20;;;;;;;;;;5116386;27;20062;-78
2023/03/29 08:15:00;;;;;;;5.47;2.15;;;;;;;;;;5116473;28;20482;-78
2023/03/29 08:17:26;;;;;;;3.42;1.88;;;;;;;;;;5116472;28;20043;-78
2023/03/29 08:19:51;;;;;;;5.57;2.50;;;;;;;;;;5112069;28;20032;-78
2023/03/29 08:22:17;;;;;;;6.53;1.92;;;;;;;;;;5113922;28;20040;-77
2023/03/29 08:24:42;;;;;;;5.50;2.33;;;;;;;;;;5108479;28;20082;-78
2023/03/29 08:27:08;;;;;;;3.28;1.80;;;;;;;;;;5115175;28;20451;-77
2023/03/29 08:29:33;;;;;;;3.25;1.50;;;;;;;;;;5116035;28;20152;-79
2023/03/29 08:31:59;;;;;;;4.95;1.48;;;;;;;;;;5114501;28;20387;-78
2023/03/29 08:34:24;;;;;;;2.58;1.23;;;;;;;;;;5116147;28;20031;-78
2023/03/29 08:36:51;;;;;;;4.88;1.60;;;;;;;;;;5115962;28;20081;-77
2023/03/29 08:39:17;;;;;;;3.05;1.27;;;;;;;;;;5116227;28;20042;-78
2023/03/29 08:42:18;;;;;;;1.40;0.77;;;;;;;;;;5113881;28;20119;-78
2023/03/29 08:45:11;;;;;;;2.25;1.15;;;;;;;;;;5077186;28;20127;-78
2023/03/29 08:47:42;;;;;;;3.20;1.20;;;;;;;;;;5115636;28;20016;-78
2023/03/29 08:50:08;;;;;;;2.30;0.93;;;;;;;;;;5116052;28;20079;-79
2023/03/29 08:52:51;;;;;;;1.58;0.73;;;;;;;;;;5114411;28;20058;-78
2023/03/29 08:55:40;;;;;;;2.70;0.80;;;;;;;;;;5110262;28;20502;-78
2023/03/29 08:58:11;;;;;;;2.65;1.17;;;;;;;;;;5097404;28;20039;-78
2023/03/29 09:01:03;;;;;;;2.58;1.45;;;;;;;;;;5115577;28;20031;-78
2023/03/29 09:03:31;;;;;;;5.68;2.42;;;;;;;;;;5112092;28;20032;-78
2023/03/29 09:06:06;;;;;;;4.95;2.40;;;;;;;;;;5114303;28;20380;-78
2023/03/29 09:08:36;;;;;;;3.63;1.90;;;;;;;;;;5095162;28;20028;-79
2023/03/29 09:11:23;;;;;;;4.28;2.22;;;;;;;;;;5114170;28;20539;-78
2023/03/29 09:13:57;;;;;;;1.40;0.80;;;;;;;;;;5097451;28;20569;-78
2023/03/29 09:16:40;;;;;;;2.83;1.58;;;;;;;;;;5115146;28;20377;-78
2023/03/29 09:19:06;;;;;;;2.00;0.98;;;;;;;;;;5113568;28;20084;-78
2023/03/29 09:21:45;;;;;;;1.50;0.80;;;;;;;;;;5108234;28;20379;-78
2023/03/29 09:24:10;;;;;;;2.25;0.90;;;;;;;;;;5104066;28;20038;-78
2023/03/29 09:26:46;;;;;;;3.58;1.45;;;;;;;;;;5114825;28;20036;-78
2023/03/29 09:29:30;;;;;;;6.93;1.10;;;;;;;;;;5105083;28;20423;-78
2023/03/29 09:31:55;;;;;;;;;;;;;;;;;;5115263;28;20035;-79
2023/03/29 09:34:33;;;;;;;5.43;1.60;;;;;;;;;;5113839;28;19915;-79
2023/03/29 09:37:02;;;;;;;2.85;1.35;;;;;;;;;;5113566;28;20039;-78
2023/03/29 09:39:28;;;;;;;1.67;0.73;;;;;;;;;;5112930;28;20070;-79
2023/03/29 09:41:58;;;;;;;2.92;1.50;;;;;;;;;;5114819;28;20443;-78
2023/03/29 09:44:27;;;;;;;3.53;1.67;;;;;;;;;;5099267;28;20492;-78
2023/03/29 09:47:02;;;;;;;3.30;1.60;;;;;;;;;;5110306;28;20047;-77
2023/03/29 09:49:31;;;;;;;3.10;1.38;;;;;;;;;;5113384;28;20101;-76
2023/03/29 09:52:02;;;;;;;3.10;1.50;;;;;;;;;;5114170;28;20455;-76
2023/03/29 09:54:27;;;;;;;4.50;1.60;;;;;;;;;;5100456;28;20048;-77
2023/03/29 09:56:53;;;;;;;2.72;1.33;;;;;;;;;;5112391;28;20082;-76
2023/03/29 09:59:18;;;;;;;3.15;1.60;;;;;;;;;;5113368;28;20063;-77
2023/03/29 10:01:44;;;;;;;3.22;1.77;;;;;;;;;;5112203;28;20039;-77
2023/03/29 10:04:10;;;;;;;4.28;1.23;;;;;;;;;;5114371;28;20032;-77
2023/03/29 10:06:42;;;;;;;3.60;1.45;;;;;;;;;;5114424;28;20110;-78
2023/03/29 10:09:15;;;;;;;7.97;1.77;;;;;;;;;;5113897;28;20066;-78
2023/03/29 10:11:42;;;;;;;3.17;1.80;;;;;;;;;;5110611;28;20531;-78
2023/03/29 10:14:34;;;;;;;2.90;1.80;;;;;;;;;;5112911;28;20035;-77
2023/03/29 10:17:04;;;;;;;5.10;1.85;;;;;;;;;;5107977;28;20046;-78
2023/03/29 10:19:34;;;;;;;4.93;2.72;;;;;;;;;;5091333;28;20032;-78
2023/03/29 10:22:04;;;;;;;4.90;3.10;;;;;;;;;;5114135;28;20093;-78
2023/03/29 10:24:29;;;;;;;6.80;4.40;;;;;;;;;;5109881;28;20088;-78
2023/03/29 10:27:06;;;;;;;3.15;2.05;;;;;;;;;;5112617;28;20032;-78
2023/03/29 10:29:39;;;;;;;5.40;2.50;;;;;;;;;;5112282;28;20547;-78
2023/03/29 10:32:48;;;;;;;5.60;2.72;;;;;;;;;;5112714;28;20122;-78
2023/03/29 10:35:23;;;;;;;3.28;1.40;;;;;;;;;;5069623;28;20388;-78
2023/03/29 10:37:50;;;;;;;2.25;1.30;;;;;;;;;;5112500;28;20035;-77
2023/03/29 10:40:33;;;;;;;1.90;1.13;;;;;;;;;;5113903;28;20046;-78
2023/03/29 10:43:13;;;;;;;3.88;1.80;;;;;;;;;;5112553;28;20028;-78
2023/03/29 10:45:40;;;;;;;3.85;1.40;;;;;;;;;;5099546;28;20165;-77
2023/03/29 10:48:08;;;;;;;3.97;1.95;;;;;;;;;;5113642;28;20039;-77
2023/03/29 10:50:36;;;;;;;6.97;2.72;;;;;;;;;;5112024;28;20398;-78
2023/03/29 10:53:05;;;;;;;3.67;1.83;;;;;;;;;;5112630;28;20394;-77
2023/03/29 10:55:49;;;;;;;2.83;1.20;;;;;;;;;;5113482;28;20079;-77
2023/03/29 10:58:14;;;;;;;1.90;0.95;;;;;;;;;;5113668;28;20032;-78
2023/03/29 11:00:50;;;;;;;2.78;1.15;;;;;;;;;;5113372;28;20032;-78
2023/03/29 11:03:28;;;;;;;3.25;1.40;;;;;;;;;;5106317;28;20046;-78
2023/03/29 11:06:07;;;;;;;5.05;1.20;;;;;;;;;;5113479;28;20027;-77
2023/03/29 11:08:48;;;;;;;4.00;1.02;;;;;;;;;;5106214;28;20131;-78
2023/03/29 11:11:32;;;;;;;2.83;1.17;;;;;;;;;;5116401;28;20053;-78
2023/03/29 11:14:03;;;;;;;;;;;;;;;;;;5117663;28;20455;-77
2023/03/29 11:16:51;;;;;;;3.38;0.90;;;;;;;;;;5117451;28;19907;-77
2023/03/29 11:19:23;;;;;;;6.82;1.83;;;;;;;;;;5110052;28;20060;-77
2023/03/29 11:21:58;;;;;;;4.60;1.30;;;;;;;;;;5112220;28;20034;-77
2023/03/29 11:24:32;;;;;;;3.95;1.30;;;;;;;;;;5116227;28;20036;-77
2023/03/29 11:27:29;;;;;;;4.18;1.42;;;;;;;;;;5116261;28;20031;-78
2023/03/29 11:30:16;;;;;;;4.50;1.50;;;;;;;;;;5112143;28;20051;-78
2023/03/29 11:33:00;;;;;;;4.18;1.20;;;;;;;;;;5114144;28;20084;-78
2023/03/29 11:35:52;;;;;;;2.60;1.23;;;;;;;;;;5112052;28;20128;-78
2023/03/29 11:38:38;;;;;;;3.40;0.80;;;;;;;;;;5116608;28;20080;-78
2023/03/29 11:41:17;;;;;;;4.38;0.80;;;;;;;;;;5116925;28;20028;-78
2023/03/29 11:43:55;;;;;;;3.88;1.00;;;;;;;;;;5115965;28;20027;-78
2023/03/29 11:46:43;;;;;;;2.65;0.85;;;;;;;;;;5116780;28;20027;-78
2023/03/29 11:49:25;;;;;;;2.80;0.88;;;;;;;;;;5115750;28;20027;-77
2023/03/29 11:52:10;;;;;;;2.30;1.00;;;;;;;;;;5115668;28;20038;-78
2023/03/29 11:54:44;;;;;;;4.40;1.30;;;;;;;;;;5099759;28;20048;-78
2023/03/29 11:57:39;;;;;;;1.85;0.98;;;;;;;;;;5110346;28;20061;-78
2023/03/29 12:00:22;;;;;;;3.22;1.23;;;;;;;;;;5113075;28;20031;-78
2023/03/29 12:02:50;;;;;;;2.45;1.05;;;;;;;;;;5115349;28;20039;-78
2023/03/29 12:05:22;;;;;;;3.80;1.10;;;;;;;;;;5115310;28;20592;-79
2023/03/29 12:08:04;;;;;;;3.88;1.17;;;;;;;;;;5115250;28;20031;-78
2023/03/29 12:10:36;;;;;;;5.18;1.38;;;;;;;;;;5115153;28;20386;-78
2023/03/29 12:13:06;;;;;;;4.25;1.60;;;;;;;;;;5115214;28;20134;-78
2023/03/29 12:15:40;;;;;;;5.63;1.30;;;;;;;;;;5115204;28;20023;-78
2023/03/29 12:18:15;;;;;;;6.22;1.27;;;;;;;;;;5112218;28;20042;-78
2023/03/29 12:20:41;;;;;;;4.80;1.10;;;;;;;;;;5111059;28;20038;-78
2023/03/29 12:23:07;;;;;;;2.63;1.20;;;;;;;;;;5116204;28;20035;-78
2023/03/29 12:25:51;;;;;;;3.70;1.42;;;;;;;;;;5115028;28;20114;-78
2023/03/29 12:28:35;;;;;;;3.00;1.10;;;;;;;;;;5107125;28;20108;-78
2023/03/29 12:31:23;;;;;;;4.97;1.80;;;;;;;;;;5115168;28;20565;-78
2023/03/29 12:34:03;;;;;;;3.65;1.27;;;;;;;;;;5112293;28;20079;-78
2023/03/29 12:36:48;;;;;;;5.22;1.10;;;;;;;;;;5116489;28;20067;-78
2023/03/29 12:39:17;;;;;;;2.38;1.10;;;;;;;;;;5111493;28;20051;-78
2023/03/29 12:41:47;;;;;;;9.93;1.23;;;;;;;;;;5114843;28;20382;-78
2023/03/29 12:44:15;;;;;;;3.55;1.15;;;;;;;;;;5107083;28;20133;-77
2023/03/29 12:46:40;;;;;;;4.47;1.30;;;;;;;;;;5115499;28;20039;-78
2023/03/29 12:49:33;;;;;;;3.83;1.10;;;;;;;;;;5115924;28;20088;-77
2023/03/29 12:52:00;;;;;;;5.57;2.05;;;;;;;;;;5104220;28;20139;-77
2023/03/29 12:54:32;;;;;;;7.57;1.42;;;;;;;;;;5115568;28;20051;-77
2023/03/29 12:57:01;;;;;;;3.13;1.00;;;;;;;;;;5115683;28;20139;-78
2023/03/29 12:59:37;;;;;;;8.20;1.23;;;;;;;;;;5114250;28;20364;-78
2023/03/29 13:02:26;;;;;;;3.22;1.30;;;;;;;;;;5114165;28;20039;-79
2023/03/29 13:04:56;;;;;;;3.53;1.27;;;;;;;;;;5114360;28;20027;-78
2023/03/29 13:07:21;;;;;;;7.28;1.20;;;;;;;;;;5101943;28;20430;-78
2023/03/29 13:09:58;;;;;;;3.15;1.10;;;;;;;;;;5115377;28;20114;-77
2023/03/29 13:12:49;;;;;;;6.00;1.27;;;;;;;;;;5115299;28;20066;-78
2023/03/29 13:15:18;;;;;;;2.90;0.90;;;;;;;;;;5114042;28;20118;-78
2023/03/29 13:18:05;;;;;;;4.60;1.20;;;;;;;;;;5115106;28;20067;-79
2023/03/29 13:20:43;;;;;;;11.35;1.40;;;;;;;;;;5110748;28;20081;-78
2023/03/29 13:23:37;;;;;;;2.42;1.02;;;;;;;;;;5095853;28;20044;-77
2023/03/29 13:26:21;;;;;;;7.13;1.85;;;;;;;;;;5106613;28;20043;-78
2023/03/29 13:29:24;;;;;;;4.15;1.30;;;;;;;;;;5113598;28;20059;-78
2023/03/29 13:32:17;;;;;;;9.80;3.15;;;;;;;;;;5113930;28;20438;-78
2023/03/29 13:34:54;;;;;;;5.38;1.83;;;;;;;;;;5114640;28;20118;-78
2023/03/29 13:37:59;;;;;;;6.80;1.88;;;;;;;;;;5113332;28;20039;-78
2023/03/29 13:40:31;;;;;;;6.57;1.80;;;;;;;;;;5111708;28;20039;-78
2023/03/29 13:43:20;;;;;;;10.02;1.70;;;;;;;;;;5114851;28;20130;-78
2023/03/29 13:45:58;;;;;;;9.35;1.75;;;;;;;;;;5107146;28;20502;-78
2023/03/29 13:48:33;;;;;;;5.97;1.60;;;;;;;;;;5108876;28;20031;-78
2023/03/29 13:51:00;;;;;;;11.18;1.90;;;;;;;;;;5111309;28;20043;-78
2023/03/29 13:53:50;;;;;;;2.90;1.08;;;;;;;;;;5112934;28;20505;-78
2023/03/29 13:56:25;;;;;;;7.65;2.13;;;;;;;;;;5112775;28;20398;-78
2023/03/29 13:58:53;;;;;;;6.32;1.88;;;;;;;;;;5114178;28;20425;-78
2023/03/29 14:01:38;;;;;;;5.70;1.10;;;;;;;;;;5113362;28;20403;-78
2023/03/29 14:04:05;;;;;;;5.75;1.45;;;;;;;;;;5098090;28;20073;-78
2023/03/29 14:06:32;;;;;;;8.50;1.63;;;;;;;;;;5113066;28;20036;-78
2023/03/29 14:09:03;;;;;;;3.88;1.33;;;;;;;;;;5113086;28;20036;-78
2023/03/29 14:11:30;;;;;;;4.38;1.30;;;;;;;;;;5112986;28;20100;-78
2023/03/29 14:14:00;;;;;;;7.05;1.33;;;;;;;;;;5114026;28;20036;-79
2023/03/29 14:16:27;;;;;;;5.18;1.70;;;;;;;;;;5113079;28;20037;-78
2023/03/29 14:18:57;;;;;;;4.47;1.80;;;;;;;;;;5111969;28;20039;-78
2023/03/29 14:21:23;;;;;;;5.50;1.50;;;;;;;;;;5109433;28;20043;-78
2023/03/29 14:23:56;;;;;;;8.60;2.10;;;;;;;;;;5114100;28;20032;-78
2023/03/29 14:26:23;;;;;;;4.00;1.33;;;;;;;;;;5111513;28;20463;-78
2023/03/29 14:28:51;;;;;;;6.32;2.00;;;;;;;;;;5112713;28;20138;-77
2023/03/29 14:31:17;;;;;;;6.40;1.75;;;;;;;;;;5111442;28;20085;-78
2023/03/29 14:33:42;;;;;;;7.60;1.75;;;;;;;;;;5112705;28;20054;-78
2023/03/29 14:36:12;;;;;;;9.23;2.33;;;;;;;;;;5114004;28;20043;-78
2023/03/29 14:38:38;;;;;;;3.72;1.92;;;;;;;;;;5112407;28;20032;-78
2023/03/29 14:41:04;;;;;;;3.10;1.17;;;;;;;;;;5114192;28;20030;-78
2023/03/29 14:43:30;;;;;;;3.63;2.00;;;;;;;;;;5112152;28;20444;-78
2023/03/29 14:46:05;;;;;;;7.05;1.98;;;;;;;;;;5112404;28;20090;-79
2023/03/29 14:48:32;;;;;;;6.60;1.77;;;;;;;;;;5095408;28;20126;-78
2023/03/29 14:50:58;;;;;;;6.93;1.80;;;;;;;;;;5113460;28;20035;-78
2023/03/29 14:53:24;;;;;;;4.28;1.40;;;;;;;;;;5112530;28;20031;-78
2023/03/29 14:55:54;;;;;;;5.13;1.40;;;;;;;;;;5113121;28;20487;-78
2023/03/29 14:58:28;;;;;;;4.30;1.58;;;;;;;;;;5112305;28;20059;-78